sensor_id;sensor_type;location;lat;lon;timestamp;P1;durP1;ratioP1;P2;durP2;ratioP2
34278;SDS011;20538;51.528;9.942;2023-03-01T00:01:22;37.55;;;17.38;;
34278;SDS011;20538;51.528;9.942;2023-03-01T00:03:50;35.88;;;17.33;;
34278;SDS011;20538;51.528;9.942;2023-03-01T00:06:16;36.13;;;17.13;;
34278;SDS011;20538;51.528;9.942;2023-03-01T00:08:42;37.65;;;16.58;;
34278;SDS011;20538;51.528;9.942;2023-03-01T00:11:10;33.58;;;17.67;;
34278;SDS011;20538;51.528;9.942;2023-03-01T00:13:37;32.67;;;17.75;;
34278;SDS011;20538;51.528;9.942;2023-03-01T00:16:06;38.00;;;17.85;;
34278;SDS011;20538;51.528;9.942;2023-03-01T00:18:34;34.40;;;16.88;;
34278;SDS011;20538;51.528;9.942;2023-03-01T00:21:00;37.55;;;17.42;;
34278;SDS011;20538;51.528;9.942;2023-03-01T00:23:26;36.92;;;16.25;;
34278;SDS011;20538;51.528;9.942;2023-03-01T00:25:52;40.67;;;17.80;;
34278;SDS011;20538;51.528;9.942;2023-03-01T00:28:18;31.95;;;17.42;;
34278;SDS011;20538;51.528;9.942;2023-03-01T00:30:44;40.63;;;17.83;;
34278;SDS011;20538;51.528;9.942;2023-03-01T00:33:10;33.42;;;16.45;;
34278;SDS011;20538;51.528;9.942;2023-03-01T00:35:36;35.10;;;17.52;;
34278;SDS011;20538;51.528;9.942;2023-03-01T00:38:02;31.13;;;16.65;;
34278;SDS011;20538;51.528;9.942;2023-03-01T00:40:29;32.88;;;16.55;;
34278;SDS011;20538;51.528;9.942;2023-03-01T00:42:57;34.05;;;16.33;;
34278;SDS011;20538;51.528;9.942;2023-03-01T00:45:23;33.83;;;16.35;;
34278;SDS011;20538;51.528;9.942;2023-03-01T00:47:49;32.95;;;16.25;;
34278;SDS011;20538;51.528;9.942;2023-03-01T00:50:15;32.35;;;16.10;;
34278;SDS011;20538;51.528;9.942;2023-03-01T00:52:41;31.25;;;14.45;;
34278;SDS011;20538;51.528;9.942;2023-03-01T00:55:07;35.78;;;15.00;;
34278;SDS011;20538;51.528;9.942;2023-03-01T00:57:33;33.22;;;14.93;;
34278;SDS011;20538;51.528;9.942;2023-03-01T00:59:59;27.65;;;14.85;;
34278;SDS011;20538;51.528;9.942;2023-03-01T01:02:25;32.40;;;14.63;;
34278;SDS011;20538;51.528;9.942;2023-03-01T01:04:51;35.85;;;15.77;;
34278;SDS011;20538;51.528;9.942;2023-03-01T01:07:17;30.05;;;13.80;;
34278;SDS011;20538;51.528;9.942;2023-03-01T01:09:45;30.98;;;15.10;;
34278;SDS011;20538;51.528;9.942;2023-03-01T01:12:10;36.72;;;15.48;;
34278;SDS011;20538;51.528;9.942;2023-03-01T01:14:39;35.63;;;16.23;;
34278;SDS011;20538;51.528;9.942;2023-03-01T01:17:04;31.20;;;15.98;;
34278;SDS011;20538;51.528;9.942;2023-03-01T01:19:30;39.45;;;18.25;;
34278;SDS011;20538;51.528;9.942;2023-03-01T01:21:56;40.90;;;18.77;;
34278;SDS011;20538;51.528;9.942;2023-03-01T01:24:21;42.13;;;18.27;;
34278;SDS011;20538;51.528;9.942;2023-03-01T01:26:47;39.03;;;19.05;;
34278;SDS011;20538;51.528;9.942;2023-03-01T01:29:13;40.17;;;18.45;;
34278;SDS011;20538;51.528;9.942;2023-03-01T01:31:40;33.55;;;16.48;;
34278;SDS011;20538;51.528;9.942;2023-03-01T01:34:08;38.20;;;17.08;;
34278;SDS011;20538;51.528;9.942;2023-03-01T01:36:38;38.03;;;16.95;;
34278;SDS011;20538;51.528;9.942;2023-03-01T01:39:07;40.28;;;17.83;;
34278;SDS011;20538;51.528;9.942;2023-03-01T01:41:32;38.83;;;18.25;;
34278;SDS011;20538;51.528;9.942;2023-03-01T01:49:37;37.75;;;17.48;;
34278;SDS011;20538;51.528;9.942;2023-03-01T01:57:19;41.20;;;18.83;;
34278;SDS011;20538;51.528;9.942;2023-03-01T01:59:53;36.90;;;17.33;;
34278;SDS011;20538;51.528;9.942;2023-03-01T02:02:23;36.65;;;17.85;;
34278;SDS011;20538;51.528;9.942;2023-03-01T02:04:49;35.90;;;17.30;;
34278;SDS011;20538;51.528;9.942;2023-03-01T02:07:23;41.00;;;19.42;;
34278;SDS011;20538;51.528;9.942;2023-03-01T02:09:51;39.45;;;18.73;;
34278;SDS011;20538;51.528;9.942;2023-03-01T02:12:19;34.90;;;17.15;;
34278;SDS011;20538;51.528;9.942;2023-03-01T02:14:48;38.47;;;18.63;;
34278;SDS011;20538;51.528;9.942;2023-03-01T02:17:15;34.40;;;15.65;;
34278;SDS011;20538;51.528;9.942;2023-03-01T02:22:36;32.20;;;16.15;;
34278;SDS011;20538;51.528;9.942;2023-03-01T02:28:05;36.05;;;16.40;;
34278;SDS011;20538;51.528;9.942;2023-03-01T02:30:39;25.83;;;12.95;;
34278;SDS011;20538;51.528;9.942;2023-03-01T02:33:26;38.90;;;17.85;;
34278;SDS011;20538;51.528;9.942;2023-03-01T02:35:53;43.33;;;17.70;;
34278;SDS011;20538;51.528;9.942;2023-03-01T02:38:20;41.45;;;17.13;;
34278;SDS011;20538;51.528;9.942;2023-03-01T02:40:47;34.95;;;17.17;;
34278;SDS011;20538;51.528;9.942;2023-03-01T02:43:15;37.90;;;17.65;;
34278;SDS011;20538;51.528;9.942;2023-03-01T02:45:52;40.53;;;18.25;;
34278;SDS011;20538;51.528;9.942;2023-03-01T02:48:18;37.88;;;16.88;;
34278;SDS011;20538;51.528;9.942;2023-03-01T02:53:38;34.03;;;16.27;;
34278;SDS011;20538;51.528;9.942;2023-03-01T02:56:04;35.13;;;17.00;;
34278;SDS011;20538;51.528;9.942;2023-03-01T02:58:30;36.60;;;17.02;;
34278;SDS011;20538;51.528;9.942;2023-03-01T03:00:56;35.50;;;17.73;;
34278;SDS011;20538;51.528;9.942;2023-03-01T03:03:22;39.67;;;17.52;;
34278;SDS011;20538;51.528;9.942;2023-03-01T03:05:48;40.70;;;18.08;;
34278;SDS011;20538;51.528;9.942;2023-03-01T03:08:13;31.88;;;16.85;;
34278;SDS011;20538;51.528;9.942;2023-03-01T03:10:41;37.70;;;17.13;;
34278;SDS011;20538;51.528;9.942;2023-03-01T03:13:09;37.20;;;16.75;;
34278;SDS011;20538;51.528;9.942;2023-03-01T03:15:37;39.92;;;16.83;;
34278;SDS011;20538;51.528;9.942;2023-03-01T03:18:05;38.20;;;17.85;;
34278;SDS011;20538;51.528;9.942;2023-03-01T03:20:33;36.38;;;17.35;;
34278;SDS011;20538;51.528;9.942;2023-03-01T03:22:59;36.38;;;16.67;;
34278;SDS011;20538;51.528;9.942;2023-03-01T03:25:25;37.28;;;16.35;;
34278;SDS011;20538;51.528;9.942;2023-03-01T03:27:53;35.28;;;16.23;;
34278;SDS011;20538;51.528;9.942;2023-03-01T03:30:21;37.85;;;17.25;;
34278;SDS011;20538;51.528;9.942;2023-03-01T03:32:52;35.40;;;16.35;;
34278;SDS011;20538;51.528;9.942;2023-03-01T03:35:23;37.28;;;16.60;;
34278;SDS011;20538;51.528;9.942;2023-03-01T03:37:49;34.35;;;15.18;;
34278;SDS011;20538;51.528;9.942;2023-03-01T03:40:35;37.72;;;16.85;;
34278;SDS011;20538;51.528;9.942;2023-03-01T03:43:03;38.13;;;17.15;;
34278;SDS011;20538;51.528;9.942;2023-03-01T03:45:31;33.38;;;15.07;;
34278;SDS011;20538;51.528;9.942;2023-03-01T03:47:58;37.22;;;16.35;;
34278;SDS011;20538;51.528;9.942;2023-03-01T03:50:24;31.70;;;14.85;;
34278;SDS011;20538;51.528;9.942;2023-03-01T03:52:49;34.08;;;16.50;;
34278;SDS011;20538;51.528;9.942;2023-03-01T03:55:15;34.88;;;15.63;;
34278;SDS011;20538;51.528;9.942;2023-03-01T03:57:44;40.10;;;15.85;;
34278;SDS011;20538;51.528;9.942;2023-03-01T04:00:16;32.22;;;15.45;;
34278;SDS011;20538;51.528;9.942;2023-03-01T04:02:44;36.70;;;16.70;;
34278;SDS011;20538;51.528;9.942;2023-03-01T04:05:11;35.33;;;15.90;;
34278;SDS011;20538;51.528;9.942;2023-03-01T04:07:39;35.50;;;16.52;;
34278;SDS011;20538;51.528;9.942;2023-03-01T04:10:06;36.25;;;14.93;;
34278;SDS011;20538;51.528;9.942;2023-03-01T04:12:34;34.45;;;16.30;;
34278;SDS011;20538;51.528;9.942;2023-03-01T04:15:00;36.30;;;15.40;;
34278;SDS011;20538;51.528;9.942;2023-03-01T04:17:26;35.45;;;15.75;;
34278;SDS011;20538;51.528;9.942;2023-03-01T04:19:52;37.53;;;17.67;;
34278;SDS011;20538;51.528;9.942;2023-03-01T04:22:18;34.67;;;16.20;;
34278;SDS011;20538;51.528;9.942;2023-03-01T04:24:44;34.90;;;16.13;;
34278;SDS011;20538;51.528;9.942;2023-03-01T04:27:10;32.97;;;15.82;;
34278;SDS011;20538;51.528;9.942;2023-03-01T04:29:36;34.97;;;15.98;;
34278;SDS011;20538;51.528;9.942;2023-03-01T04:32:01;33.60;;;16.35;;
34278;SDS011;20538;51.528;9.942;2023-03-01T04:34:28;36.47;;;16.60;;
34278;SDS011;20538;51.528;9.942;2023-03-01T04:36:54;38.17;;;16.38;;
34278;SDS011;20538;51.528;9.942;2023-03-01T04:39:20;34.70;;;15.90;;
34278;SDS011;20538;51.528;9.942;2023-03-01T04:41:45;40.53;;;16.95;;
34278;SDS011;20538;51.528;9.942;2023-03-01T04:44:11;33.83;;;16.27;;
34278;SDS011;20538;51.528;9.942;2023-03-01T04:46:37;37.38;;;17.50;;
34278;SDS011;20538;51.528;9.942;2023-03-01T04:49:03;34.10;;;14.43;;
34278;SDS011;20538;51.528;9.942;2023-03-01T04:51:30;34.47;;;15.77;;
34278;SDS011;20538;51.528;9.942;2023-03-01T04:53:57;35.35;;;16.15;;
34278;SDS011;20538;51.528;9.942;2023-03-01T04:56:23;30.20;;;15.23;;
34278;SDS011;20538;51.528;9.942;2023-03-01T04:58:49;30.80;;;15.52;;
34278;SDS011;20538;51.528;9.942;2023-03-01T05:01:18;36.60;;;16.38;;
34278;SDS011;20538;51.528;9.942;2023-03-01T05:03:46;31.30;;;15.40;;
34278;SDS011;20538;51.528;9.942;2023-03-01T05:06:13;31.20;;;14.48;;
34278;SDS011;20538;51.528;9.942;2023-03-01T05:08:40;38.28;;;16.27;;
34278;SDS011;20538;51.528;9.942;2023-03-01T05:11:09;37.53;;;16.30;;
34278;SDS011;20538;51.528;9.942;2023-03-01T05:13:36;33.28;;;15.07;;
34278;SDS011;20538;51.528;9.942;2023-03-01T05:16:03;35.65;;;17.73;;
34278;SDS011;20538;51.528;9.942;2023-03-01T05:18:30;36.30;;;16.67;;
34278;SDS011;20538;51.528;9.942;2023-03-01T05:21:09;35.97;;;16.40;;
34278;SDS011;20538;51.528;9.942;2023-03-01T05:23:36;34.00;;;16.02;;
34278;SDS011;20538;51.528;9.942;2023-03-01T05:26:02;36.17;;;16.92;;
34278;SDS011;20538;51.528;9.942;2023-03-01T05:28:30;35.42;;;16.30;;
34278;SDS011;20538;51.528;9.942;2023-03-01T05:30:56;35.53;;;15.38;;
34278;SDS011;20538;51.528;9.942;2023-03-01T05:33:23;36.67;;;16.55;;
34278;SDS011;20538;51.528;9.942;2023-03-01T05:35:49;34.92;;;17.48;;
34278;SDS011;20538;51.528;9.942;2023-03-01T05:38:16;35.33;;;15.15;;
34278;SDS011;20538;51.528;9.942;2023-03-01T05:40:43;36.05;;;16.83;;
34278;SDS011;20538;51.528;9.942;2023-03-01T05:43:11;40.95;;;16.80;;
34278;SDS011;20538;51.528;9.942;2023-03-01T05:45:38;39.28;;;17.30;;
34278;SDS011;20538;51.528;9.942;2023-03-01T05:48:04;38.88;;;17.00;;
34278;SDS011;20538;51.528;9.942;2023-03-01T05:50:35;36.15;;;16.48;;
34278;SDS011;20538;51.528;9.942;2023-03-01T05:53:13;34.88;;;16.23;;
34278;SDS011;20538;51.528;9.942;2023-03-01T05:55:40;44.72;;;16.88;;
34278;SDS011;20538;51.528;9.942;2023-03-01T05:58:09;37.17;;;17.60;;
34278;SDS011;20538;51.528;9.942;2023-03-01T06:00:36;35.17;;;16.88;;
34278;SDS011;20538;51.528;9.942;2023-03-01T06:03:02;34.78;;;15.90;;
34278;SDS011;20538;51.528;9.942;2023-03-01T06:05:28;37.55;;;17.55;;
34278;SDS011;20538;51.528;9.942;2023-03-01T06:07:55;38.40;;;17.40;;
34278;SDS011;20538;51.528;9.942;2023-03-01T06:10:23;39.83;;;17.92;;
34278;SDS011;20538;51.528;9.942;2023-03-01T06:12:49;37.05;;;17.13;;
34278;SDS011;20538;51.528;9.942;2023-03-01T06:15:15;41.55;;;16.63;;
34278;SDS011;20538;51.528;9.942;2023-03-01T06:17:42;34.05;;;17.35;;
34278;SDS011;20538;51.528;9.942;2023-03-01T06:20:16;38.33;;;17.17;;
34278;SDS011;20538;51.528;9.942;2023-03-01T06:22:46;33.90;;;16.55;;
34278;SDS011;20538;51.528;9.942;2023-03-01T06:25:13;42.67;;;17.80;;
34278;SDS011;20538;51.528;9.942;2023-03-01T06:27:41;36.63;;;17.98;;
34278;SDS011;20538;51.528;9.942;2023-03-01T06:30:07;41.72;;;17.92;;
34278;SDS011;20538;51.528;9.942;2023-03-01T06:32:35;43.63;;;18.33;;
34278;SDS011;20538;51.528;9.942;2023-03-01T06:35:02;40.70;;;16.77;;
34278;SDS011;20538;51.528;9.942;2023-03-01T06:37:28;38.90;;;18.50;;
34278;SDS011;20538;51.528;9.942;2023-03-01T06:39:54;35.78;;;16.55;;
34278;SDS011;20538;51.528;9.942;2023-03-01T06:42:20;36.38;;;17.00;;
34278;SDS011;20538;51.528;9.942;2023-03-01T06:44:45;38.20;;;18.55;;
34278;SDS011;20538;51.528;9.942;2023-03-01T06:47:11;37.72;;;16.77;;
34278;SDS011;20538;51.528;9.942;2023-03-01T06:49:37;40.85;;;17.45;;
34278;SDS011;20538;51.528;9.942;2023-03-01T06:52:03;49.05;;;16.80;;
34278;SDS011;20538;51.528;9.942;2023-03-01T06:54:29;40.35;;;17.70;;
34278;SDS011;20538;51.528;9.942;2023-03-01T06:56:54;35.05;;;17.65;;
34278;SDS011;20538;51.528;9.942;2023-03-01T06:59:20;40.17;;;18.13;;
34278;SDS011;20538;51.528;9.942;2023-03-01T07:01:46;38.15;;;17.85;;
34278;SDS011;20538;51.528;9.942;2023-03-01T07:04:12;45.83;;;18.75;;
34278;SDS011;20538;51.528;9.942;2023-03-01T07:06:38;38.45;;;17.33;;
34278;SDS011;20538;51.528;9.942;2023-03-01T07:09:04;39.33;;;18.38;;
34278;SDS011;20538;51.528;9.942;2023-03-01T07:11:29;33.63;;;15.60;;
34278;SDS011;20538;51.528;9.942;2023-03-01T07:13:55;33.55;;;17.35;;
34278;SDS011;20538;51.528;9.942;2023-03-01T07:16:21;42.15;;;18.08;;
34278;SDS011;20538;51.528;9.942;2023-03-01T07:18:46;40.42;;;16.73;;
34278;SDS011;20538;51.528;9.942;2023-03-01T07:21:13;35.05;;;15.48;;
34278;SDS011;20538;51.528;9.942;2023-03-01T07:23:39;39.13;;;16.60;;
34278;SDS011;20538;51.528;9.942;2023-03-01T07:26:05;33.88;;;17.80;;
34278;SDS011;20538;51.528;9.942;2023-03-01T07:28:31;35.70;;;15.90;;
34278;SDS011;20538;51.528;9.942;2023-03-01T07:31:03;35.88;;;16.85;;
34278;SDS011;20538;51.528;9.942;2023-03-01T07:33:30;41.22;;;17.75;;
34278;SDS011;20538;51.528;9.942;2023-03-01T07:35:56;36.88;;;17.20;;
34278;SDS011;20538;51.528;9.942;2023-03-01T07:38:27;38.10;;;18.27;;
34278;SDS011;20538;51.528;9.942;2023-03-01T07:40:54;40.85;;;17.90;;
34278;SDS011;20538;51.528;9.942;2023-03-01T07:43:24;46.33;;;16.58;;
34278;SDS011;20538;51.528;9.942;2023-03-01T07:45:49;33.45;;;16.45;;
34278;SDS011;20538;51.528;9.942;2023-03-01T07:48:15;33.13;;;16.23;;
34278;SDS011;20538;51.528;9.942;2023-03-01T07:50:41;30.33;;;15.98;;
34278;SDS011;20538;51.528;9.942;2023-03-01T07:53:06;40.08;;;17.55;;
34278;SDS011;20538;51.528;9.942;2023-03-01T07:55:32;39.22;;;16.25;;
34278;SDS011;20538;51.528;9.942;2023-03-01T07:57:57;33.47;;;17.15;;
34278;SDS011;20538;51.528;9.942;2023-03-01T08:00:23;33.88;;;17.13;;
34278;SDS011;20538;51.528;9.942;2023-03-01T08:02:49;34.10;;;17.25;;
34278;SDS011;20538;51.528;9.942;2023-03-01T08:05:14;38.00;;;18.55;;
34278;SDS011;20538;51.528;9.942;2023-03-01T08:07:43;38.92;;;17.50;;
34278;SDS011;20538;51.528;9.942;2023-03-01T08:10:09;36.85;;;17.80;;
34278;SDS011;20538;51.528;9.942;2023-03-01T08:12:35;38.15;;;18.45;;
34278;SDS011;20538;51.528;9.942;2023-03-01T08:15:00;41.72;;;19.55;;
34278;SDS011;20538;51.528;9.942;2023-03-01T08:17:29;37.50;;;18.15;;
34278;SDS011;20538;51.528;9.942;2023-03-01T08:19:55;32.75;;;16.15;;
34278;SDS011;20538;51.528;9.942;2023-03-01T08:22:21;32.08;;;16.48;;
34278;SDS011;20538;51.528;9.942;2023-03-01T08:24:46;30.50;;;14.98;;
34278;SDS011;20538;51.528;9.942;2023-03-01T08:27:12;26.63;;;14.98;;
34278;SDS011;20538;51.528;9.942;2023-03-01T08:29:39;28.63;;;15.50;;
34278;SDS011;20538;51.528;9.942;2023-03-01T08:32:06;30.63;;;15.55;;
34278;SDS011;20538;51.528;9.942;2023-03-01T08:34:32;33.38;;;15.15;;
34278;SDS011;20538;51.528;9.942;2023-03-01T08:37:00;30.73;;;15.32;;
34278;SDS011;20538;51.528;9.942;2023-03-01T08:39:26;31.65;;;15.45;;
34278;SDS011;20538;51.528;9.942;2023-03-01T08:41:52;32.25;;;14.80;;
34278;SDS011;20538;51.528;9.942;2023-03-01T08:44:18;30.42;;;14.70;;
34278;SDS011;20538;51.528;9.942;2023-03-01T08:46:46;33.72;;;16.15;;
34278;SDS011;20538;51.528;9.942;2023-03-01T08:49:15;31.25;;;15.77;;
34278;SDS011;20538;51.528;9.942;2023-03-01T08:51:43;26.98;;;14.55;;
34278;SDS011;20538;51.528;9.942;2023-03-01T08:54:11;31.60;;;14.85;;
34278;SDS011;20538;51.528;9.942;2023-03-01T08:56:38;23.35;;;12.40;;
34278;SDS011;20538;51.528;9.942;2023-03-01T08:59:03;27.08;;;12.95;;
34278;SDS011;20538;51.528;9.942;2023-03-01T09:01:29;25.63;;;13.18;;
34278;SDS011;20538;51.528;9.942;2023-03-01T09:03:55;27.42;;;12.57;;
34278;SDS011;20538;51.528;9.942;2023-03-01T09:06:21;22.23;;;12.68;;
34278;SDS011;20538;51.528;9.942;2023-03-01T09:08:47;23.85;;;13.10;;
34278;SDS011;20538;51.528;9.942;2023-03-01T09:11:16;27.58;;;13.52;;
34278;SDS011;20538;51.528;9.942;2023-03-01T09:13:45;23.50;;;11.27;;
34278;SDS011;20538;51.528;9.942;2023-03-01T09:16:12;25.25;;;12.98;;
34278;SDS011;20538;51.528;9.942;2023-03-01T09:18:39;25.05;;;12.82;;
34278;SDS011;20538;51.528;9.942;2023-03-01T09:21:06;26.00;;;14.00;;
34278;SDS011;20538;51.528;9.942;2023-03-01T09:23:37;26.90;;;13.63;;
34278;SDS011;20538;51.528;9.942;2023-03-01T09:26:05;25.80;;;12.60;;
34278;SDS011;20538;51.528;9.942;2023-03-01T09:28:31;26.08;;;12.98;;
34278;SDS011;20538;51.528;9.942;2023-03-01T09:30:57;23.67;;;11.65;;
34278;SDS011;20538;51.528;9.942;2023-03-01T09:33:24;21.58;;;11.98;;
34278;SDS011;20538;51.528;9.942;2023-03-01T09:35:55;21.50;;;12.65;;
34278;SDS011;20538;51.528;9.942;2023-03-01T09:38:25;24.90;;;12.02;;
34278;SDS011;20538;51.528;9.942;2023-03-01T09:40:51;24.40;;;11.95;;
34278;SDS011;20538;51.528;9.942;2023-03-01T09:46:19;27.35;;;12.52;;
34278;SDS011;20538;51.528;9.942;2023-03-01T09:48:57;24.75;;;11.60;;
34278;SDS011;20538;51.528;9.942;2023-03-01T09:51:32;23.38;;;11.90;;
34278;SDS011;20538;51.528;9.942;2023-03-01T09:54:00;20.73;;;11.05;;
34278;SDS011;20538;51.528;9.942;2023-03-01T09:56:34;20.73;;;10.13;;
34278;SDS011;20538;51.528;9.942;2023-03-01T10:02:11;16.15;;;8.43;;
34278;SDS011;20538;51.528;9.942;2023-03-01T10:09:41;22.85;;;8.68;;
34278;SDS011;20538;51.528;9.942;2023-03-01T10:12:09;14.85;;;8.50;;
34278;SDS011;20538;51.528;9.942;2023-03-01T10:14:48;30.88;;;9.68;;
34278;SDS011;20538;51.528;9.942;2023-03-01T10:17:37;15.20;;;7.80;;
34278;SDS011;20538;51.528;9.942;2023-03-01T10:20:14;21.42;;;8.88;;
34278;SDS011;20538;51.528;9.942;2023-03-01T10:22:41;17.10;;;8.73;;
34278;SDS011;20538;51.528;9.942;2023-03-01T10:25:08;20.15;;;8.57;;
34278;SDS011;20538;51.528;9.942;2023-03-01T10:28:00;24.30;;;9.32;;
34278;SDS011;20538;51.528;9.942;2023-03-01T10:30:37;15.30;;;7.97;;
34278;SDS011;20538;51.528;9.942;2023-03-01T10:33:23;16.58;;;7.90;;
34278;SDS011;20538;51.528;9.942;2023-03-01T10:36:02;18.17;;;7.33;;
34278;SDS011;20538;51.528;9.942;2023-03-01T10:38:30;18.98;;;7.85;;
34278;SDS011;20538;51.528;9.942;2023-03-01T10:40:58;18.52;;;8.98;;
34278;SDS011;20538;51.528;9.942;2023-03-01T10:46:34;16.10;;;8.43;;
34278;SDS011;20538;51.528;9.942;2023-03-01T10:49:06;14.32;;;7.10;;
34278;SDS011;20538;51.528;9.942;2023-03-01T10:51:32;16.00;;;8.55;;
34278;SDS011;20538;51.528;9.942;2023-03-01T10:53:58;19.98;;;8.30;;
34278;SDS011;20538;51.528;9.942;2023-03-01T10:56:24;19.90;;;8.68;;
34278;SDS011;20538;51.528;9.942;2023-03-01T10:59:00;16.67;;;8.10;;
34278;SDS011;20538;51.528;9.942;2023-03-01T11:01:34;20.30;;;8.65;;
34278;SDS011;20538;51.528;9.942;2023-03-01T11:06:33;17.23;;;8.40;;
34278;SDS011;20538;51.528;9.942;2023-03-01T11:09:15;23.65;;;9.93;;
34278;SDS011;20538;51.528;9.942;2023-03-01T11:11:44;14.88;;;8.38;;
34278;SDS011;20538;51.528;9.942;2023-03-01T11:14:35;17.33;;;8.38;;
34278;SDS011;20538;51.528;9.942;2023-03-01T11:19:30;22.23;;;8.52;;
34278;SDS011;20538;51.528;9.942;2023-03-01T11:22:13;18.27;;;8.50;;
34278;SDS011;20538;51.528;9.942;2023-03-01T11:24:47;16.27;;;8.35;;
34278;SDS011;20538;51.528;9.942;2023-03-01T11:27:18;14.27;;;7.47;;
34278;SDS011;20538;51.528;9.942;2023-03-01T11:29:52;17.20;;;8.15;;
34278;SDS011;20538;51.528;9.942;2023-03-01T11:32:35;13.85;;;7.25;;
34278;SDS011;20538;51.528;9.942;2023-03-01T11:35:23;14.48;;;6.88;;
34278;SDS011;20538;51.528;9.942;2023-03-01T11:40:46;13.52;;;5.60;;
34278;SDS011;20538;51.528;9.942;2023-03-01T11:43:30;10.93;;;5.60;;
34278;SDS011;20538;51.528;9.942;2023-03-01T11:49:16;10.55;;;5.30;;
34278;SDS011;20538;51.528;9.942;2023-03-01T11:52:19;9.73;;;5.10;;
34278;SDS011;20538;51.528;9.942;2023-03-01T11:55:17;12.32;;;5.70;;
34278;SDS011;20538;51.528;9.942;2023-03-01T12:20:05;9.95;;;5.15;;
34278;SDS011;20538;51.528;9.942;2023-03-01T12:46:10;14.00;;;7.55;;
34278;SDS011;20538;51.528;9.942;2023-03-01T12:49:23;14.02;;;7.78;;
34278;SDS011;20538;51.528;9.942;2023-03-01T12:51:31;13.93;;;7.00;;
34278;SDS011;20538;51.528;9.942;2023-03-01T12:53:59;19.38;;;8.25;;
34278;SDS011;20538;51.528;9.942;2023-03-01T12:56:34;14.32;;;7.03;;
34278;SDS011;20538;51.528;9.942;2023-03-01T12:59:20;15.52;;;7.90;;
34278;SDS011;20538;51.528;9.942;2023-03-01T13:04:54;17.70;;;8.90;;
34278;SDS011;20538;51.528;9.942;2023-03-01T13:07:44;15.52;;;6.90;;
34278;SDS011;20538;51.528;9.942;2023-03-01T13:17:53;19.63;;;7.68;;
34278;SDS011;20538;51.528;9.942;2023-03-01T13:20:21;13.75;;;7.60;;
34278;SDS011;20538;51.528;9.942;2023-03-01T13:23:11;14.25;;;7.53;;
34278;SDS011;20538;51.528;9.942;2023-03-01T13:31:07;15.40;;;7.53;;
34278;SDS011;20538;51.528;9.942;2023-03-01T13:33:41;16.15;;;7.93;;
34278;SDS011;20538;51.528;9.942;2023-03-01T13:36:07;13.63;;;7.60;;
34278;SDS011;20538;51.528;9.942;2023-03-01T13:38:47;14.38;;;7.57;;
34278;SDS011;20538;51.528;9.942;2023-03-01T13:46:56;12.75;;;6.72;;
34278;SDS011;20538;51.528;9.942;2023-03-01T13:57:39;11.27;;;6.30;;
34278;SDS011;20538;51.528;9.942;2023-03-01T14:00:07;14.32;;;6.75;;
34278;SDS011;20538;51.528;9.942;2023-03-01T14:02:59;12.57;;;6.20;;
34278;SDS011;20538;51.528;9.942;2023-03-01T14:06:01;17.38;;;7.70;;
34278;SDS011;20538;51.528;9.942;2023-03-01T14:08:32;12.27;;;7.45;;
34278;SDS011;20538;51.528;9.942;2023-03-01T14:24:44;16.75;;;6.70;;
34278;SDS011;20538;51.528;9.942;2023-03-01T14:27:17;14.13;;;6.30;;
34278;SDS011;20538;51.528;9.942;2023-03-01T14:29:43;16.60;;;7.40;;
34278;SDS011;20538;51.528;9.942;2023-03-01T14:32:24;14.30;;;6.55;;
34278;SDS011;20538;51.528;9.942;2023-03-01T14:34:51;9.43;;;5.05;;
34278;SDS011;20538;51.528;9.942;2023-03-01T14:37:31;14.05;;;6.75;;
34278;SDS011;20538;51.528;9.942;2023-03-01T14:40:00;14.20;;;6.05;;
34278;SDS011;20538;51.528;9.942;2023-03-01T14:42:29;13.60;;;5.85;;
34278;SDS011;20538;51.528;9.942;2023-03-01T14:44:59;13.70;;;6.07;;
34278;SDS011;20538;51.528;9.942;2023-03-01T14:47:30;14.80;;;5.97;;
34278;SDS011;20538;51.528;9.942;2023-03-01T14:49:59;10.27;;;5.72;;
34278;SDS011;20538;51.528;9.942;2023-03-01T14:52:36;13.27;;;6.80;;
34278;SDS011;20538;51.528;9.942;2023-03-01T14:55:05;12.95;;;6.45;;
34278;SDS011;20538;51.528;9.942;2023-03-01T14:57:42;15.82;;;6.63;;
34278;SDS011;20538;51.528;9.942;2023-03-01T15:00:16;20.30;;;7.38;;
34278;SDS011;20538;51.528;9.942;2023-03-01T15:02:46;12.35;;;6.20;;
34278;SDS011;20538;51.528;9.942;2023-03-01T15:05:14;12.07;;;6.70;;
34278;SDS011;20538;51.528;9.942;2023-03-01T15:07:42;13.18;;;6.00;;
34278;SDS011;20538;51.528;9.942;2023-03-01T15:10:27;11.15;;;6.05;;
34278;SDS011;20538;51.528;9.942;2023-03-01T15:12:54;16.20;;;6.65;;
34278;SDS011;20538;51.528;9.942;2023-03-01T15:15:30;14.95;;;6.10;;
34278;SDS011;20538;51.528;9.942;2023-03-01T15:18:04;24.85;;;6.53;;
34278;SDS011;20538;51.528;9.942;2023-03-01T15:20:38;16.05;;;6.18;;
34278;SDS011;20538;51.528;9.942;2023-03-01T15:23:04;15.85;;;6.65;;
34278;SDS011;20538;51.528;9.942;2023-03-01T15:25:30;14.18;;;6.65;;
34278;SDS011;20538;51.528;9.942;2023-03-01T15:27:57;13.73;;;6.82;;
34278;SDS011;20538;51.528;9.942;2023-03-01T15:30:35;12.43;;;5.95;;
34278;SDS011;20538;51.528;9.942;2023-03-01T15:35:58;15.70;;;5.95;;
34278;SDS011;20538;51.528;9.942;2023-03-01T15:38:29;12.75;;;6.55;;
34278;SDS011;20538;51.528;9.942;2023-03-01T15:41:23;14.77;;;6.47;;
34278;SDS011;20538;51.528;9.942;2023-03-01T15:43:49;15.13;;;5.75;;
34278;SDS011;20538;51.528;9.942;2023-03-01T15:46:16;8.95;;;4.85;;
34278;SDS011;20538;51.528;9.942;2023-03-01T15:48:48;11.10;;;6.13;;
34278;SDS011;20538;51.528;9.942;2023-03-01T15:51:17;12.18;;;5.43;;
34278;SDS011;20538;51.528;9.942;2023-03-01T15:53:50;14.68;;;6.28;;
34278;SDS011;20538;51.528;9.942;2023-03-01T15:56:17;13.15;;;5.75;;
34278;SDS011;20538;51.528;9.942;2023-03-01T15:58:43;11.38;;;5.45;;
34278;SDS011;20538;51.528;9.942;2023-03-01T16:01:13;9.38;;;5.03;;
34278;SDS011;20538;51.528;9.942;2023-03-01T16:03:40;10.23;;;4.57;;
34278;SDS011;20538;51.528;9.942;2023-03-01T16:06:08;11.23;;;4.75;;
34278;SDS011;20538;51.528;9.942;2023-03-01T16:08:34;8.68;;;4.68;;
34278;SDS011;20538;51.528;9.942;2023-03-01T16:11:00;8.45;;;4.45;;
34278;SDS011;20538;51.528;9.942;2023-03-01T16:13:29;9.48;;;4.25;;
34278;SDS011;20538;51.528;9.942;2023-03-01T16:15:56;9.20;;;4.68;;
34278;SDS011;20538;51.528;9.942;2023-03-01T16:18:22;12.85;;;4.95;;
34278;SDS011;20538;51.528;9.942;2023-03-01T16:20:47;7.45;;;4.43;;
34278;SDS011;20538;51.528;9.942;2023-03-01T16:23:14;9.52;;;4.72;;
34278;SDS011;20538;51.528;9.942;2023-03-01T16:25:40;10.27;;;4.85;;
34278;SDS011;20538;51.528;9.942;2023-03-01T16:28:06;9.30;;;4.28;;
34278;SDS011;20538;51.528;9.942;2023-03-01T16:30:35;8.90;;;4.43;;
34278;SDS011;20538;51.528;9.942;2023-03-01T16:33:02;8.35;;;4.75;;
34278;SDS011;20538;51.528;9.942;2023-03-01T16:35:31;10.02;;;4.53;;
34278;SDS011;20538;51.528;9.942;2023-03-01T16:37:57;11.98;;;5.18;;
34278;SDS011;20538;51.528;9.942;2023-03-01T16:40:28;8.98;;;4.50;;
34278;SDS011;20538;51.528;9.942;2023-03-01T16:42:55;10.05;;;4.50;;
34278;SDS011;20538;51.528;9.942;2023-03-01T16:45:24;9.13;;;5.25;;
34278;SDS011;20538;51.528;9.942;2023-03-01T16:47:51;10.50;;;4.43;;
34278;SDS011;20538;51.528;9.942;2023-03-01T16:50:18;8.38;;;4.63;;
34278;SDS011;20538;51.528;9.942;2023-03-01T16:52:44;13.88;;;5.78;;
34278;SDS011;20538;51.528;9.942;2023-03-01T16:55:09;11.60;;;5.00;;